Time;durP1;ratioP1;P1;durP2;ratioP2;P2;SDS_P1;SDS_P2;PMS_P1;PMS_P2;Temp;Humidity;BMP_temperature;BMP_pressure;BME280_temperature;BME280_humidity;BME280_pressure;Samples;Min_cycle;Max_cycle;Signal;HPM_P1;HPM_P2
2023/02/05 00:01:54;;;;;;;4.28;2.20;;;;;;;1.04;100.00;103498.22;6213003;28;20050;-71
2023/02/05 00:04:56;;;;;;;5.32;2.72;;;;;;;0.99;100.00;103501.56;6203078;28;20051;-71
2023/02/05 00:07:57;;;;;;;6.80;2.53;;;;;;;0.98;100.00;103502.41;6202683;28;20047;-71
2023/02/05 00:11:04;;;;;;;3.70;2.65;;;;;;;0.95;100.00;103504.91;6202705;28;20065;-71
2023/02/05 00:14:05;;;;;;;10.23;2.78;;;;;;;0.93;100.00;103505.69;6202681;28;20051;-71
2023/02/05 00:17:08;;;;;;;3.90;2.03;;;;;;;0.95;100.00;103493.66;6202594;28;20050;-71
2023/02/05 00:20:10;;;;;;;4.53;2.20;;;;;;;0.94;100.00;103479.84;6202379;28;20057;-71
2023/02/05 00:23:12;;;;;;;6.93;2.60;;;;;;;0.93;100.00;103479.78;6202488;28;20053;-71
2023/02/05 00:26:14;;;;;;;2.70;1.52;;;;;;;0.86;100.00;103483.00;6202361;28;20061;-71
2023/02/05 00:29:15;;;;;;;6.50;2.28;;;;;;;0.86;100.00;103472.66;6201436;28;20058;-71
2023/02/05 00:32:18;;;;;;;4.60;2.20;;;;;;;0.81;100.00;103466.47;6204263;28;20047;-71
2023/02/05 00:35:19;;;;;;;6.05;2.30;;;;;;;0.75;100.00;103462.84;6202522;28;20050;-71
2023/02/05 00:38:20;;;;;;;5.60;2.35;;;;;;;0.74;100.00;103447.28;6201893;28;20054;-71
2023/02/05 00:41:21;;;;;;;4.15;2.22;;;;;;;0.67;100.00;103435.84;6202311;28;20050;-71
2023/02/05 00:44:23;;;;;;;4.03;2.55;;;;;;;0.63;100.00;103435.72;6203145;28;20057;-71
2023/02/05 00:47:25;;;;;;;5.45;2.45;;;;;;;0.68;100.00;103444.50;6202151;28;20057;-71
2023/02/05 00:50:27;;;;;;;3.15;1.83;;;;;;;0.68;100.00;103442.81;6201764;28;20069;-71
2023/02/05 00:53:28;;;;;;;5.00;2.45;;;;;;;0.66;100.00;103449.63;6202125;28;20057;-71
2023/02/05 00:56:30;;;;;;;3.97;2.78;;;;;;;0.65;100.00;103440.13;6202194;28;20057;-71
2023/02/05 00:59:31;;;;;;;4.20;2.55;;;;;;;0.60;100.00;103430.47;6201907;28;20061;-71
2023/02/05 01:02:34;;;;;;;4.13;2.30;;;;;;;0.59;100.00;103423.50;6202982;28;20436;-71
2023/02/05 01:05:36;;;;;;;5.40;2.45;;;;;;;0.57;100.00;103420.00;6201824;28;20061;-71
2023/02/05 01:08:38;;;;;;;5.05;2.10;;;;;;;0.54;100.00;103414.72;6201466;28;20050;-71
2023/02/05 01:11:40;;;;;;;7.00;2.42;;;;;;;0.54;100.00;103409.56;6201544;28;20448;-71
2023/02/05 01:14:41;;;;;;;4.10;2.40;;;;;;;0.54;100.00;103401.78;6201675;28;20050;-71
2023/02/05 01:17:44;;;;;;;2.35;1.83;;;;;;;0.49;100.00;103397.34;6201312;28;20058;-71
2023/02/05 01:20:45;;;;;;;4.35;2.42;;;;;;;0.45;100.00;103392.91;6201919;28;20050;-71
2023/02/05 01:23:46;;;;;;;7.00;2.33;;;;;;;0.44;100.00;103379.94;6201460;28;20432;-71
2023/02/05 01:26:48;;;;;;;4.43;2.40;;;;;;;0.40;100.00;103371.19;6208748;28;20050;-71
2023/02/05 01:29:49;;;;;;;10.85;3.03;;;;;;;0.38;100.00;103357.34;6224723;28;20368;-71
2023/02/05 01:32:52;;;;;;;8.27;2.97;;;;;;;0.39;100.00;103361.69;6223971;28;20046;-71
2023/02/05 01:35:53;;;;;;;6.38;2.70;;;;;;;0.37;100.00;103365.97;6225765;28;20057;-71
2023/02/05 01:38:54;;;;;;;4.53;2.20;;;;;;;0.34;100.00;103347.75;6225974;28;20058;-71
2023/02/05 01:41:56;;;;;;;2.97;1.98;;;;;;;0.26;100.00;103344.03;6230318;28;20049;-71
2023/02/05 01:45:49;;;;;;;5.45;1.60;;;;;;;0.30;100.00;103351.06;6230485;28;20053;-72
2023/02/05 01:48:57;;;;;;;3.13;1.95;;;;;;;0.29;100.00;103356.19;6230519;28;20049;-71
2023/02/05 01:52:03;;;;;;;1.38;1.23;;;;;;;0.32;100.00;103352.00;6230329;28;20053;-71
2023/02/05 01:55:07;;;;;;;4.20;1.80;;;;;;;0.30;100.00;103357.94;6230179;28;20060;-71
2023/02/05 01:58:09;;;;;;;3.20;1.90;;;;;;;0.31;100.00;103357.13;6229764;28;20443;-71
2023/02/05 02:01:10;;;;;;;2.08;1.75;;;;;;;0.28;100.00;103350.16;6229102;28;20049;-71
2023/02/05 02:04:18;;;;;;;2.80;2.40;;;;;;;0.28;100.00;103351.88;6222561;28;20343;-71
2023/02/05 02:07:23;;;;;;;2.25;1.75;;;;;;;0.30;100.00;103339.84;6215566;28;20046;-71
2023/02/05 02:10:26;;;;;;;2.92;1.85;;;;;;;0.35;100.00;103338.28;6205470;28;20046;-71
2023/02/05 02:13:29;;;;;;;4.78;2.50;;;;;;;0.44;100.00;103321.31;6205738;28;20047;-71
2023/02/05 02:16:30;;;;;;;3.53;2.22;;;;;;;0.48;100.00;103319.72;6205548;28;20046;-71
2023/02/05 02:19:40;;;;;;;3.33;1.98;;;;;;;0.52;100.00;103308.63;6205327;28;20370;-71
2023/02/05 02:22:55;;;;;;;3.47;1.77;;;;;;;0.56;100.00;103299.25;6205203;28;20059;-71
2023/02/05 02:26:26;;;;;;;2.28;1.73;;;;;;;0.52;100.00;103306.03;6205454;28;20054;-71
2023/02/05 02:29:36;;;;;;;2.72;2.25;;;;;;;0.50;100.00;103310.31;6204924;28;20054;-71
2023/02/05 02:32:40;;;;;;;2.97;1.75;;;;;;;0.58;100.00;103315.69;6205136;28;20449;-71
2023/02/05 02:35:47;;;;;;;4.53;2.20;;;;;;;0.58;100.00;103311.38;6228232;28;20406;-71
2023/02/05 02:38:54;;;;;;;2.70;1.55;;;;;;;0.60;100.00;103327.84;6228994;28;20096;-71
2023/02/05 02:42:03;;;;;;;1.67;1.02;;;;;;;0.68;100.00;103323.78;6229073;28;20064;-71
2023/02/05 02:45:10;;;;;;;2.43;1.60;;;;;;;0.75;100.00;103320.50;6229284;28;20054;-71
2023/02/05 02:48:15;;;;;;;2.58;1.65;;;;;;;0.70;100.00;103324.69;6228683;28;20324;-71
2023/02/05 02:51:19;;;;;;;2.47;1.92;;;;;;;0.81;100.00;103308.56;6228072;28;20184;-71
2023/02/05 02:54:22;;;;;;;3.20;2.08;;;;;;;0.84;100.00;103313.84;6228559;28;20368;-71
2023/02/05 02:57:28;;;;;;;3.22;2.05;;;;;;;0.85;100.00;103305.25;6228783;28;20046;-71
2023/02/05 03:00:32;;;;;;;4.15;1.75;;;;;;;0.86;100.00;103302.69;6229313;28;20042;-72
2023/02/05 03:03:37;;;;;;;3.38;1.38;;;;;;;0.90;100.00;103316.59;6226106;28;20042;-71
2023/02/05 03:06:43;;;;;;;2.08;1.30;;;;;;;0.86;100.00;103301.81;6204460;28;20047;-71
2023/02/05 03:09:52;;;;;;;3.78;2.28;;;;;;;0.91;100.00;103313.16;6203920;28;20515;-71
2023/02/05 03:12:55;;;;;;;4.75;1.92;;;;;;;0.90;100.00;103314.00;6204339;28;20057;-71
2023/02/05 03:15:58;;;;;;;5.00;2.38;;;;;;;0.92;100.00;103315.81;6204220;28;20050;-71
2023/02/05 03:19:01;;;;;;;3.45;1.73;;;;;;;0.96;100.00;103298.69;6203643;28;20057;-71
2023/02/05 03:22:05;;;;;;;6.35;1.70;;;;;;;0.96;100.00;103286.59;6204374;28;20050;-71
2023/02/05 03:25:08;;;;;;;4.00;1.98;;;;;;;0.99;100.00;103286.66;6203714;28;20057;-71
2023/02/05 03:28:10;;;;;;;3.25;2.10;;;;;;;1.01;100.00;103273.78;6205023;28;20061;-71
2023/02/05 03:31:19;;;;;;;6.38;1.83;;;;;;;0.98;100.00;103266.78;6227840;28;20341;-71
2023/02/05 03:34:36;;;;;;;6.03;2.03;;;;;;;0.96;100.00;103257.25;6226312;28;20042;-71
2023/02/05 03:37:45;;;;;;;4.53;1.90;;;;;;;0.98;100.00;103259.03;6227283;28;20061;-72
2023/02/05 03:40:50;;;;;;;;;;;;;;;0.95;100.00;103258.06;6227895;28;20054;-71
2023/02/05 03:44:00;;;;;;;2.10;1.40;;;;;;;0.98;100.00;103261.63;6228145;28;19922;-71
2023/02/05 03:47:08;;;;;;;3.38;1.77;;;;;;;0.98;100.00;103263.34;6227566;28;20062;-71
2023/02/05 03:50:17;;;;;;;1.75;1.33;;;;;;;0.92;100.00;103274.41;6227503;28;20053;-71
2023/02/05 03:53:24;;;;;;;3.38;1.50;;;;;;;0.96;100.00;103268.47;6227206;28;20042;-71
2023/02/05 03:56:33;;;;;;;4.15;2.55;;;;;;;1.00;100.00;103272.03;6233431;28;20428;-71
2023/02/05 03:59:36;;;;;;;3.72;1.73;;;;;;;1.00;100.00;103279.81;6251619;28;20060;-71
2023/02/05 04:02:38;;;;;;;3.42;1.50;;;;;;;1.02;100.00;103280.72;6248735;28;20061;-70
2023/02/05 04:05:40;;;;;;;4.10;1.55;;;;;;;1.02;100.00;103278.13;6202893;28;20046;-71
2023/02/05 04:08:42;;;;;;;3.30;1.52;;;;;;;1.02;100.00;103270.34;6202488;28;20057;-71
2023/02/05 04:11:44;;;;;;;2.35;1.92;;;;;;;1.05;100.00;103277.34;6202622;28;20357;-71
2023/02/05 04:14:45;;;;;;;3.40;2.22;;;;;;;0.97;100.00;103265.03;6202635;28;20054;-70
2023/02/05 04:17:48;;;;;;;4.18;1.77;;;;;;;0.98;100.00;103274.56;6233659;28;20053;-71
2023/02/05 04:20:49;;;;;;;2.13;1.45;;;;;;;1.02;100.00;103265.16;6250817;28;20055;-72
2023/02/05 04:23:51;;;;;;;5.75;2.22;;;;;;;0.97;100.00;103256.41;6251362;28;20050;-71
2023/02/05 04:26:52;;;;;;;3.63;1.50;;;;;;;0.99;100.00;103249.53;6251603;28;20053;-71
2023/02/05 04:29:53;;;;;;;7.22;1.90;;;;;;;0.97;100.00;103243.47;6250918;28;20049;-71
2023/02/05 04:32:56;;;;;;;3.28;1.23;;;;;;;1.02;100.00;103242.75;6237858;28;20046;-71
2023/02/05 04:35:58;;;;;;;3.22;1.80;;;;;;;1.03;100.00;103235.84;6202360;28;20050;-71
2023/02/05 04:38:59;;;;;;;2.35;1.38;;;;;;;1.00;100.00;103234.06;6201942;28;20057;-71
2023/02/05 04:42:01;;;;;;;2.40;1.60;;;;;;;0.97;100.00;103233.97;6201900;28;20445;-71
2023/02/05 04:45:04;;;;;;;3.03;1.50;;;;;;;0.97;100.00;103226.22;6202186;28;20456;-71
2023/02/05 04:48:07;;;;;;;3.53;1.92;;;;;;;0.95;100.00;103235.66;6201758;28;20061;-71
2023/02/05 04:51:10;;;;;;;3.65;1.65;;;;;;;0.93;100.00;103226.97;6201957;28;20046;-71
2023/02/05 04:54:11;;;;;;;2.58;1.63;;;;;;;0.93;100.00;103223.50;6201954;28;20050;-71
2023/02/05 04:57:12;;;;;;;3.10;1.67;;;;;;;0.90;100.00;103215.66;6202075;28;20057;-71
2023/02/05 05:00:14;;;;;;;2.58;1.73;;;;;;;0.88;100.00;103225.09;6201351;28;20061;-71
2023/02/05 05:03:17;;;;;;;2.20;1.40;;;;;;;0.94;100.00;103222.66;6203195;28;20050;-71
2023/02/05 05:06:19;;;;;;;4.10;1.90;;;;;;;0.96;100.00;103214.13;6201582;28;20050;-71
2023/02/05 05:09:22;;;;;;;2.20;1.30;;;;;;;0.96;100.00;103214.13;6201629;28;20050;-71
2023/02/05 05:12:24;;;;;;;4.03;2.10;;;;;;;0.97;100.00;103215.84;6201547;28;20069;-71
2023/02/05 05:15:25;;;;;;;5.45;2.03;;;;;;;0.96;100.00;103216.69;6207720;28;20321;-71
2023/02/05 05:18:28;;;;;;;3.28;1.58;;;;;;;0.98;100.00;103209.84;6209612;28;20050;-71
2023/02/05 05:21:30;;;;;;;2.42;1.50;;;;;;;1.00;100.00;103203.00;6209679;28;20061;-71
2023/02/05 05:24:31;;;;;;;2.45;1.63;;;;;;;1.00;100.00;103210.78;6209815;28;20057;-71
2023/02/05 05:27:32;;;;;;;4.25;1.80;;;;;;;1.07;100.00;103216.09;6209099;28;20058;-71
2023/02/05 05:30:33;;;;;;;2.92;1.75;;;;;;;1.07;100.00;103201.44;6209735;28;20061;-71
2023/02/05 05:33:36;;;;;;;2.47;1.52;;;;;;;1.06;100.00;103181.56;6210294;28;20050;-71
2023/02/05 05:36:38;;;;;;;3.45;1.73;;;;;;;1.11;100.00;103190.31;6209553;28;20050;-71
2023/02/05 05:46:21;;;;;;;2.65;1.38;;;;;;;1.05;100.00;103195.34;6209435;28;20054;-71
2023/02/05 05:49:24;;;;;;;2.17;1.58;;;;;;;1.10;100.00;103196.34;6209124;28;20069;-71
2023/02/05 05:52:25;;;;;;;2.97;1.73;;;;;;;1.12;100.00;103193.78;6209123;28;20348;-71
2023/02/05 05:55:27;;;;;;;2.75;1.52;;;;;;;1.13;100.00;103196.41;6209354;28;20344;-71
2023/02/05 05:58:28;;;;;;;2.95;1.70;;;;;;;1.18;100.00;103188.75;6208860;28;20058;-71
2023/02/05 06:01:29;;;;;;;5.80;1.98;;;;;;;1.19;100.00;103180.16;6209448;28;20051;-71
2023/02/05 06:04:32;;;;;;;2.80;1.60;;;;;;;1.22;100.00;103170.72;6210181;28;20057;-71
2023/02/05 06:07:33;;;;;;;2.90;1.65;;;;;;;1.23;100.00;103171.63;6209275;28;20046;-80
2023/02/05 06:10:35;;;;;;;2.00;1.48;;;;;;;1.17;100.00;103168.88;6209100;28;20054;-80
2023/02/05 06:13:36;;;;;;;2.55;1.52;;;;;;;1.14;100.00;103166.22;6209316;28;20042;-80
2023/02/05 06:16:37;;;;;;;3.58;2.03;;;;;;;1.19;100.00;103157.72;6209166;28;20057;-80
2023/02/05 06:19:40;;;;;;;3.45;1.83;;;;;;;1.19;100.00;103149.97;6209075;28;20046;-80
2023/02/05 06:22:41;;;;;;;3.35;1.67;;;;;;;1.24;100.00;103152.66;6209185;28;20460;-80
2023/02/05 06:25:43;;;;;;;4.65;2.35;;;;;;;1.27;100.00;103148.44;6206024;28;20046;-81
2023/02/05 06:28:44;;;;;;;4.90;1.42;;;;;;;1.25;100.00;103136.28;6205173;28;20058;-80
2023/02/05 06:31:45;;;;;;;3.28;1.70;;;;;;;1.23;100.00;103133.66;6205809;28;20050;-80
2023/02/05 06:34:48;;;;;;;1.75;1.50;;;;;;;1.21;100.00;103135.31;6229591;28;20046;-80
2023/02/05 06:37:49;;;;;;;1.88;1.33;;;;;;;1.24;100.00;103135.41;6228969;28;20054;-80
2023/02/05 06:40:51;;;;;;;1.52;1.23;;;;;;;1.24;100.00;103140.56;6229292;28;20050;-80
2023/02/05 06:43:52;;;;;;;2.00;1.42;;;;;;;1.27;100.00;103147.53;6229180;28;20053;-80
2023/02/05 06:46:53;;;;;;;3.45;1.90;;;;;;;1.30;100.00;103149.31;6229431;28;20061;-80
2023/02/05 06:49:56;;;;;;;1.70;1.23;;;;;;;1.33;100.00;103149.41;6228710;28;20049;-78
2023/02/05 06:52:58;;;;;;;2.90;1.65;;;;;;;1.26;100.00;103150.97;6228981;28;20054;-78
2023/02/05 06:55:59;;;;;;;2.72;1.65;;;;;;;1.25;100.00;103150.09;6228025;28;20042;-80
2023/02/05 06:59:00;;;;;;;3.45;2.10;;;;;;;1.31;100.00;103156.25;6228639;28;20061;-79
2023/02/05 07:02:02;;;;;;;5.82;2.03;;;;;;;1.32;100.00;103150.22;6227156;28;20046;-79
2023/02/05 07:05:04;;;;;;;3.08;1.80;;;;;;;1.29;100.00;103143.28;6228528;28;20053;-80
2023/02/05 07:08:06;;;;;;;4.88;2.13;;;;;;;1.30;100.00;103149.31;6228356;28;20050;-80
2023/02/05 07:11:07;;;;;;;2.33;1.90;;;;;;;1.21;100.00;103149.97;6228538;28;20137;-80
2023/02/05 07:14:08;;;;;;;2.55;1.58;;;;;;;1.20;100.00;103156.88;6228463;28;20057;-80
2023/02/05 07:17:10;;;;;;;2.03;1.45;;;;;;;1.17;100.00;103150.75;6227994;28;20367;-79
2023/02/05 07:20:13;;;;;;;3.25;1.75;;;;;;;1.18;100.00;103145.63;6228309;28;20061;-80
2023/02/05 07:23:14;;;;;;;4.03;1.92;;;;;;;1.18;100.00;103145.63;6228387;28;20050;-80
2023/02/05 07:26:17;;;;;;;3.53;1.40;;;;;;;1.20;100.00;103148.25;6228240;28;20056;-80
2023/02/05 07:29:18;;;;;;;2.22;1.33;;;;;;;1.21;100.00;103135.31;6227746;28;20352;-80
2023/02/05 07:32:19;;;;;;;3.33;1.67;;;;;;;1.24;100.00;103135.41;6226568;28;20054;-80
2023/02/05 07:35:22;;;;;;;4.38;2.22;;;;;;;1.25;100.00;103136.28;6209483;28;20053;-81
2023/02/05 07:38:23;;;;;;;2.50;1.65;;;;;;;1.25;100.00;103139.72;6203073;28;20046;-81
2023/02/05 07:41:25;;;;;;;1.67;1.35;;;;;;;1.15;100.00;103127.41;6203363;28;20144;-80
2023/02/05 07:44:27;;;;;;;2.72;1.17;;;;;;;1.17;100.00;103138.66;6215766;28;20050;-80
2023/02/05 07:47:28;;;;;;;2.13;1.63;;;;;;;1.22;100.00;103131.00;6227450;28;20356;-80
2023/02/05 07:50:31;;;;;;;2.33;1.58;;;;;;;1.20;100.00;103133.56;6227689;28;20046;-80
2023/02/05 07:53:32;;;;;;;2.72;1.55;;;;;;;1.22;100.00;103136.19;6222585;28;20046;-80
2023/02/05 07:56:34;;;;;;;2.17;1.30;;;;;;;1.21;100.00;103132.72;6223345;28;20042;-80
2023/02/05 07:59:35;;;;;;;3.88;1.63;;;;;;;1.22;100.00;103136.19;6227483;28;20053;-80
2023/02/05 08:02:36;;;;;;;2.35;1.88;;;;;;;1.27;100.00;103144.94;6218245;28;20050;-79
2023/02/05 08:05:39;;;;;;;3.80;1.88;;;;;;;1.32;100.00;103143.34;6222870;28;20049;-73
2023/02/05 08:08:41;;;;;;;2.53;1.38;;;;;;;1.35;100.00;103130.47;6219892;28;20049;-82
2023/02/05 08:11:42;;;;;;;2.05;1.48;;;;;;;1.38;100.00;103140.91;6224730;28;20061;-82
2023/02/05 08:14:44;;;;;;;3.05;1.63;;;;;;;1.42;100.00;103149.63;6224954;28;20045;-82
2023/02/05 08:17:45;;;;;;;1.45;1.25;;;;;;;1.41;100.00;103158.22;6224398;28;20445;-83
2023/02/05 08:20:51;;;;;;;2.25;1.48;;;;;;;1.41;100.00;103140.06;6225818;28;20357;-82
2023/02/05 08:23:52;;;;;;;3.33;2.00;;;;;;;1.41;100.00;103137.50;6225971;28;20053;-82
2023/02/05 08:26:53;;;;;;;5.53;2.00;;;;;;;1.42;100.00;103136.69;6227299;28;20053;-82
2023/02/05 08:29:55;;;;;;;3.67;1.85;;;;;;;1.45;100.00;103137.63;6226779;28;20060;-82
2023/02/05 08:32:56;;;;;;;4.60;2.20;;;;;;;1.46;100.00;103131.59;6216955;28;20057;-82
2023/02/05 08:35:59;;;;;;;3.03;1.90;;;;;;;1.45;100.00;103123.75;6202450;28;20357;-82
2023/02/05 08:39:00;;;;;;;6.03;2.25;;;;;;;1.40;100.00;103121.06;6202133;28;20047;-83
2023/02/05 08:42:01;;;;;;;6.25;2.33;;;;;;;1.47;100.00;103124.69;6202371;28;20061;-82
2023/02/05 08:45:07;;;;;;;5.13;2.95;;;;;;;1.50;100.00;103132.53;6202253;28;20046;-83
2023/02/05 08:48:08;;;;;;;3.75;2.20;;;;;;;1.57;100.00;103136.13;6201851;28;20663;-83
2023/02/05 08:51:13;;;;;;;4.50;2.92;;;;;;;1.61;100.00;103137.97;6202026;28;20130;-83
2023/02/05 08:54:14;;;;;;;3.60;2.53;;;;;;;1.66;100.00;103139.81;6202338;28;20042;-83
2023/02/05 08:57:16;;;;;;;6.00;2.78;;;;;;;1.64;100.00;103141.50;6203352;28;20429;-82
2023/02/05 09:00:18;;;;;;;5.70;2.22;;;;;;;1.63;100.00;103144.91;6201716;28;20129;-83
2023/02/05 09:03:19;;;;;;;2.67;1.70;;;;;;;1.60;100.00;103155.22;6202126;28;20113;-82
2023/02/05 09:06:23;;;;;;;4.43;1.92;;;;;;;1.67;100.00;103151.91;6202205;28;20053;-83
2023/02/05 09:09:24;;;;;;;4.32;2.40;;;;;;;1.71;100.00;103152.88;6201969;28;20043;-82
2023/02/05 09:12:25;;;;;;;5.28;2.05;;;;;;;1.61;100.00;103149.19;6202014;28;20051;-83
2023/02/05 09:15:27;;;;;;;2.25;1.60;;;;;;;1.61;100.00;103149.19;6202099;28;20053;-83
2023/02/05 09:18:28;;;;;;;2.95;1.98;;;;;;;1.62;100.00;103144.88;6201854;28;20348;-83
2023/02/05 09:21:31;;;;;;;7.00;1.80;;;;;;;1.62;100.00;103144.88;6201914;28;20061;-83
2023/02/05 09:24:33;;;;;;;5.18;1.92;;;;;;;1.54;100.00;103147.28;6201800;28;20050;-83
2023/02/05 09:27:34;;;;;;;3.75;1.88;;;;;;;1.66;100.00;103146.72;6202233;28;20046;-83
2023/02/05 09:30:36;;;;;;;6.63;2.30;;;;;;;1.71;100.00;103145.97;6201753;28;20148;-83
2023/02/05 09:33:38;;;;;;;2.78;2.00;;;;;;;1.71;100.00;103147.69;6201956;28;20194;-82
2023/02/05 09:36:41;;;;;;;4.82;2.17;;;;;;;1.70;100.00;103141.63;6201648;28;20058;-83
2023/02/05 09:39:42;;;;;;;2.08;1.55;;;;;;;1.76;100.00;103154.72;6201618;28;20050;-83
2023/02/05 09:42:50;;;;;;;3.78;2.03;;;;;;;1.77;100.00;103150.41;6201642;28;20061;-83
2023/02/05 09:45:57;;;;;;;3.13;1.88;;;;;;;1.65;100.00;103155.34;6201889;28;20053;-83
2023/02/05 09:49:02;;;;;;;8.55;3.15;;;;;;;1.70;100.00;103152.00;6201518;28;20054;-83
2023/02/05 09:52:13;;;;;;;4.53;2.83;;;;;;;1.84;100.00;103151.41;6201476;28;20453;-83
2023/02/05 09:55:21;;;;;;;4.75;2.30;;;;;;;1.80;100.00;103158.25;6201640;28;20050;-82
2023/02/05 09:58:27;;;;;;;3.53;2.03;;;;;;;1.86;100.00;103162.69;6207613;28;20057;-82
2023/02/05 10:01:39;;;;;;;8.80;2.13;;;;;;;1.86;100.00;103167.88;6205100;28;20050;-83
2023/02/05 10:04:41;;;;;;;3.47;2.08;;;;;;;1.90;100.00;103167.97;6206262;28;20057;-83
2023/02/05 10:07:54;;;;;;;2.58;2.10;;;;;;;1.94;100.00;103174.09;6205864;28;20057;-83
2023/02/05 10:10:57;;;;;;;3.75;2.42;;;;;;;1.95;100.00;103178.44;6206248;28;20173;-83
2023/02/05 10:14:08;;;;;;;9.93;3.28;;;;;;;2.00;100.00;103188.09;6205934;28;20437;-83
2023/02/05 10:17:28;;;;;;;6.88;2.47;;;;;;;2.08;100.00;103185.63;6205909;28;20053;-83
2023/02/05 10:20:39;;;;;;;7.07;2.90;;;;;;;2.13;100.00;103188.31;6205967;28;20047;-83
2023/02/05 10:23:59;;;;;;;3.60;2.00;;;;;;;2.03;100.00;103182.06;6205891;28;20050;-83
2023/02/05 10:27:08;;;;;;;3.72;2.17;;;;;;;1.95;100.00;103191.41;6214334;28;20053;-83
2023/02/05 10:30:19;;;;;;;5.38;2.45;;;;;;;1.97;100.00;103195.78;6209826;28;20485;-82
2023/02/05 10:33:36;;;;;;;4.45;2.40;;;;;;;2.00;100.00;103193.28;6205367;28;20452;-83
2023/02/05 10:36:37;;;;;;;5.00;2.53;;;;;;;2.06;100.00;103194.25;6205528;28;20064;-83
2023/02/05 10:39:40;;;;;;;5.43;2.35;;;;;;;2.19;100.00;103188.47;6205566;28;20050;-83
2023/02/05 10:42:46;;;;;;;5.47;2.25;;;;;;;2.22;100.00;103194.56;6205178;28;20050;-83
2023/02/05 10:45:48;;;;;;;2.88;1.70;;;;;;;2.12;100.00;103196.97;6205249;28;20061;-82
2023/02/05 10:48:54;;;;;;;4.40;2.25;;;;;;;2.17;100.00;103198.78;6205022;28;20061;-83
2023/02/05 10:51:56;;;;;;;3.78;1.60;;;;;;;2.21;100.00;103205.81;6205464;28;20076;-82
2023/02/05 10:55:00;;;;;;;3.47;2.15;;;;;;;2.22;100.00;103197.16;6204907;28;20050;-83
2023/02/05 10:58:09;;;;;;;4.25;2.15;;;;;;;2.22;100.00;103209.28;6205869;28;20061;-83
2023/02/05 11:01:16;;;;;;;4.78;2.65;;;;;;;2.31;100.00;103199.09;6204231;28;20058;-82
2023/02/05 11:04:22;;;;;;;3.10;2.30;;;;;;;2.40;100.00;103204.44;6204829;28;20050;-83
2023/02/05 11:07:28;;;;;;;3.95;2.20;;;;;;;2.45;100.00;103204.53;6205117;28;20051;-82
2023/02/05 11:10:33;;;;;;;2.38;1.83;;;;;;;2.35;100.00;103206.09;6204661;28;20051;-82
2023/02/05 11:13:41;;;;;;;3.33;2.05;;;;;;;2.51;100.00;103213.34;6203937;28;20349;-83
2023/02/05 11:16:45;;;;;;;3.83;2.42;;;;;;;2.69;100.00;103210.22;6205085;28;20050;-83
2023/02/05 11:19:54;;;;;;;4.78;2.47;;;;;;;2.76;100.00;103224.19;6204321;28;20054;-82
2023/02/05 11:23:08;;;;;;;3.30;2.20;;;;;;;2.89;100.00;103215.78;6204810;28;20421;-83
2023/02/05 11:26:18;;;;;;;2.95;2.10;;;;;;;2.87;100.00;103216.63;6204386;28;20042;-82
2023/02/05 11:29:21;;;;;;;3.67;2.10;;;;;;;2.97;100.00;103219.41;6203970;28;20069;-82
2023/02/05 11:32:35;;;;;;;2.63;1.80;;;;;;;3.01;100.00;103223.81;6204189;28;20047;-83
2023/02/05 11:35:37;;;;;;;3.30;1.77;;;;;;;3.06;100.00;103226.50;6204248;28;20046;-82
2023/02/05 11:38:44;;;;;;;7.15;3.72;;;;;;;3.02;100.00;103224.69;6203857;28;20065;-82
2023/02/05 11:41:50;;;;;;;4.85;2.55;;;;;;;3.02;100.00;103230.75;6203863;28;20376;-83
2023/02/05 11:44:54;;;;;;;3.28;1.88;;;;;;;2.96;100.00;103230.66;6203762;28;20420;-83
2023/02/05 11:47:57;;;;;;;8.95;2.28;;;;;;;2.96;100.00;103228.06;6203474;28;20042;-82
2023/02/05 11:50:59;;;;;;;2.47;1.70;;;;;;;3.01;100.00;103244.59;6203599;28;20357;-83
2023/02/05 11:54:04;;;;;;;5.07;1.98;;;;;;;3.05;100.00;103242.94;6203716;28;20050;-82
2023/02/05 11:57:25;;;;;;;3.13;2.25;;;;;;;3.05;100.00;103240.34;6207930;28;20045;-82
2023/02/05 12:00:27;;;;;;;2.10;1.63;;;;;;;3.05;100.00;103240.34;6203287;28;20461;-82
2023/02/05 12:03:31;;;;;;;3.40;2.42;;;;;;;3.08;100.00;103250.75;6203496;28;20145;-82
2023/02/05 12:06:38;;;;;;;4.68;2.40;;;;;;;3.12;100.00;103257.75;6203792;28;20137;-82
2023/02/05 12:09:41;;;;;;;6.18;2.58;;;;;;;3.11;100.00;103262.94;6203163;28;20058;-82
2023/02/05 12:12:55;;;;;;;2.05;1.83;;;;;;;3.04;100.00;103268.03;6203024;28;20361;-83
2023/02/05 12:16:05;;;;;;;2.78;2.15;;;;;;;2.94;100.00;103267.81;6202999;28;20361;-82
2023/02/05 12:19:18;;;;;;;3.22;2.20;;;;;;;2.94;100.00;103258.28;6202709;28;20054;-82
2023/02/05 12:22:35;;;;;;;4.10;2.20;;;;;;;2.91;100.00;103263.47;6203037;28;20086;-82
2023/02/05 12:25:46;;;;;;;3.60;2.30;;;;;;;2.92;100.00;103254.81;6202151;28;20050;-82
2023/02/05 12:28:59;;;;;;;6.82;2.75;;;;;;;3.01;100.00;103246.31;6224911;28;20357;-82
2023/02/05 12:32:10;;;;;;;8.65;3.30;;;;;;;3.10;100.00;103250.81;6227154;28;20049;-82
2023/02/05 12:35:29;;;;;;;6.60;3.00;;;;;;;3.11;100.00;103253.41;6224892;28;20377;-81
2023/02/05 12:38:44;;;;;;;5.88;2.33;;;;;;;3.08;100.00;103247.28;6220511;28;20057;-82
2023/02/05 12:41:53;;;;;;;5.35;3.42;;;;;;;3.07;100.00;103249.00;6226325;28;20375;-82
2023/02/05 12:45:06;;;;;;;3.93;2.60;;;;;;;3.02;100.00;103235.06;6211058;28;20367;-82
2023/02/05 12:48:28;;;;;;;4.43;2.53;;;;;;;3.06;100.00;103234.28;6226007;28;20296;-82
2023/02/05 12:51:47;;;;;;;6.75;3.28;;;;;;;3.08;100.00;103227.38;6220402;28;20042;-82
2023/02/05 12:55:02;;;;;;;3.70;2.72;;;;;;;3.13;100.00;103212.75;6226668;28;20050;-82
2023/02/05 12:58:08;;;;;;;4.15;2.47;;;;;;;3.16;100.00;103224.91;6211795;28;20072;-82
2023/02/05 13:01:17;;;;;;;10.05;3.08;;;;;;;3.07;100.00;103246.41;6202850;28;20058;-82
2023/02/05 13:04:23;;;;;;;42.22;15.43;;;;;;;3.02;100.00;103245.47;6224591;28;20432;-82
2023/02/05 13:07:33;;;;;;;10.48;4.47;;;;;;;3.00;100.00;103245.44;6223652;28;20050;-82
2023/02/05 13:10:43;;;;;;;19.52;7.72;;;;;;;3.03;100.00;103255.00;6209993;28;20054;-82
2023/02/05 13:13:50;;;;;;;47.15;21.15;;;;;;;3.07;100.00;103261.13;6202386;28;20050;-82
2023/02/05 13:17:00;;;;;;;24.15;11.52;;;;;;;3.09;100.00;103269.81;6215434;28;20139;-82
2023/02/05 13:20:05;;;;;;;7.10;3.40;;;;;;;3.07;100.00;103264.59;6226047;28;20054;-82
2023/02/05 13:29:52;;;;;;;7.90;2.83;;;;;;;3.02;100.00;103280.09;6201645;28;20481;-82
2023/02/05 13:33:00;;;;;;;8.38;3.28;;;;;;;2.91;100.00;103280.75;6210354;28;20049;-82
2023/02/05 13:36:19;;;;;;;5.68;3.30;;;;;;;2.92;100.00;103282.50;6228774;28;20042;-82
2023/02/05 13:39:43;;;;;;;10.20;3.40;;;;;;;2.95;100.00;103287.75;6230688;28;20053;-82
2023/02/05 13:43:16;;;;;;;8.40;3.70;;;;;;;2.92;100.00;103311.06;6230562;28;20049;-82
2023/02/05 13:46:52;;;;;;;7.30;3.70;;;;;;;2.94;100.00;103322.34;6206599;28;20050;-82
2023/02/05 13:50:22;;;;;;;4.90;2.85;;;;;;;2.96;100.00;103312.88;6188594;28;20384;-82
2023/02/05 13:53:49;;;;;;;10.63;4.88;;;;;;;3.04;100.00;103317.38;6206278;28;20061;-82
2023/02/05 13:57:02;;;;;;;5.53;3.28;;;;;;;3.02;100.00;103307.81;6206687;28;20053;-82
2023/02/05 14:00:05;;;;;;;16.33;6.40;;;;;;;3.04;100.00;103309.59;6227238;28;20360;-82
2023/02/05 14:03:08;;;;;;;9.45;4.75;;;;;;;3.01;100.00;103309.53;6230143;28;20050;-82
2023/02/05 14:06:22;;;;;;;8.27;4.95;;;;;;;2.95;100.00;103325.00;6230910;28;20429;-82
2023/02/05 14:09:32;;;;;;;9.13;3.75;;;;;;;2.91;100.00;103335.31;6230219;28;20444;-82
2023/02/05 14:12:36;;;;;;;10.52;5.63;;;;;;;2.87;100.00;103346.47;6230259;28;20341;-82
2023/02/05 14:15:39;;;;;;;9.82;5.40;;;;;;;2.95;100.00;103340.59;6230063;28;20046;-83
2023/02/05 14:18:46;;;;;;;9.93;4.75;;;;;;;2.93;100.00;103352.66;6228623;28;20344;-82
2023/02/05 14:22:03;;;;;;;9.10;4.63;;;;;;;2.93;100.00;103364.75;6229860;28;20128;-82
2023/02/05 14:25:41;;;;;;;7.80;4.47;;;;;;;2.92;100.00;103357.81;6221905;28;20060;-82
2023/02/05 14:28:48;;;;;;;11.23;3.92;;;;;;;2.95;100.00;103350.97;6228811;28;20062;-82
2023/02/05 14:31:50;;;;;;;14.50;5.25;;;;;;;2.96;100.00;103351.84;6229863;28;20054;-82
2023/02/05 14:34:59;;;;;;;17.90;6.93;;;;;;;3.04;100.00;103358.94;6229716;28;20057;-82